Time;durP1;ratioP1;P1;durP2;ratioP2;P2;SDS_P1;SDS_P2;PMS_P1;PMS_P2;Temp;Humidity;BMP_temperature;BMP_pressure;BME280_temperature;BME280_humidity;BME280_pressure;Samples;Min_cycle;Max_cycle;Signal;HPM_P1;HPM_P2
2023/12/30 00:00:21;;;;;;;3.40;2.27;;;;;;;6.45;100.00;153016.88;5011255;28;20471;-76
2023/12/30 00:02:48;;;;;;;3.17;2.50;;;;;;;6.48;100.00;153024.63;4988254;28;20460;-76
2023/12/30 00:05:14;;;;;;;3.10;2.70;;;;;;;6.52;100.00;153034.91;5002780;28;20452;-76
2023/12/30 00:07:41;;;;;;;2.93;2.37;;;;;;;6.54;100.00;153040.13;4971733;28;20477;-76
2023/12/30 00:10:08;;;;;;;3.10;2.80;;;;;;;6.53;100.00;153037.50;5009373;28;20544;-76
2023/12/30 00:12:35;;;;;;;3.83;2.30;;;;;;;6.53;100.00;153037.50;4987092;28;20851;-76
2023/12/30 00:15:02;;;;;;;3.70;2.30;;;;;;;6.55;100.00;153042.66;4983803;28;20884;-76
2023/12/30 00:17:31;;;;;;;3.00;2.00;;;;;;;6.59;100.00;153053.00;5011877;28;20466;-76
2023/12/30 00:19:57;;;;;;;3.30;2.40;;;;;;;6.60;100.00;153055.56;4990796;28;20923;-76
2023/12/30 00:22:24;;;;;;;2.70;2.40;;;;;;;6.63;100.00;153063.31;5029343;28;20452;-76
2023/12/30 00:24:51;;;;;;;3.50;2.53;;;;;;;6.66;100.00;153071.06;5011735;28;20444;-76
2023/12/30 00:27:17;;;;;;;4.30;2.30;;;;;;;6.69;100.00;153080.13;5021859;28;20459;-76
2023/12/30 00:29:44;;;;;;;3.60;2.47;;;;;;;6.72;100.00;153087.81;4986014;28;20473;-76
2023/12/30 00:32:10;;;;;;;2.63;2.43;;;;;;;6.77;100.00;153099.47;5008032;28;20704;-76
2023/12/30 00:34:38;;;;;;;2.97;2.37;;;;;;;6.80;100.00;153107.22;4983192;28;20463;-76
2023/12/30 00:37:05;;;;;;;2.60;2.40;;;;;;;6.84;100.00;153116.22;5011036;28;20464;-77
2023/12/30 00:39:32;;;;;;;3.40;2.60;;;;;;;6.86;100.00;153122.69;5008795;28;20472;-77
2023/12/30 00:41:58;;;;;;;2.30;2.00;;;;;;;6.90;100.00;153131.72;5013683;28;20542;-76
2023/12/30 00:44:25;;;;;;;3.13;2.33;;;;;;;6.91;100.00;153135.59;4990764;28;20507;-76
2023/12/30 00:46:51;;;;;;;2.87;2.57;;;;;;;6.90;100.00;153133.03;5008513;28;20456;-76
2023/12/30 00:49:18;;;;;;;3.50;2.33;;;;;;;6.93;100.00;153140.78;5012363;28;20809;-76
2023/12/30 00:51:46;;;;;;;3.13;2.20;;;;;;;6.95;100.00;153145.94;5045864;28;20501;-76
2023/12/30 00:54:12;;;;;;;3.73;2.23;;;;;;;6.99;100.00;153156.25;5015375;28;20455;-76
2023/12/30 00:56:39;;;;;;;3.20;2.50;;;;;;;7.01;100.00;153161.44;4986300;28;20448;-76
2023/12/30 00:59:05;;;;;;;3.10;2.80;;;;;;;7.04;100.00;153167.91;5001672;28;20440;-76
2023/12/30 01:01:32;;;;;;;2.40;2.20;;;;;;;7.11;100.00;153187.25;4996682;28;20468;-76
2023/12/30 01:03:59;;;;;;;3.20;2.57;;;;;;;7.14;100.00;153195.00;5015686;28;21027;-76
2023/12/30 01:06:26;;;;;;;3.60;2.53;;;;;;;7.18;100.00;153205.31;4995824;28;20466;-76
2023/12/30 01:08:54;;;;;;;3.50;2.50;;;;;;;7.23;100.00;153216.91;4973493;28;20522;-77
2023/12/30 01:11:21;;;;;;;2.10;1.80;;;;;;;7.22;100.00;153215.66;5003110;28;20509;-76
2023/12/30 01:13:47;;;;;;;3.83;2.53;;;;;;;7.23;100.00;153218.22;5009778;28;20460;-76
2023/12/30 01:16:14;;;;;;;2.80;2.50;;;;;;;7.27;100.00;153228.56;5008149;28;20452;-76
2023/12/30 01:18:41;;;;;;;3.37;2.47;;;;;;;7.31;100.00;153238.88;4994314;28;20541;-77
2023/12/30 01:21:07;;;;;;;3.00;2.37;;;;;;;7.33;100.00;153242.78;5016061;28;20437;-76
2023/12/30 01:23:34;;;;;;;2.60;2.30;;;;;;;7.35;100.00;153247.94;5008958;28;20488;-76
2023/12/30 01:26:02;;;;;;;2.70;2.17;;;;;;;7.40;100.00;153259.53;5025023;28;21019;-76
2023/12/30 01:28:28;;;;;;;1.97;1.77;;;;;;;7.43;100.00;153268.59;4982866;28;20484;-76
2023/12/30 01:30:55;;;;;;;3.23;2.77;;;;;;;7.47;100.00;153277.63;5006830;28;20442;-76
2023/12/30 01:33:22;;;;;;;2.47;2.20;;;;;;;7.49;100.00;153284.13;5006104;28;20466;-76
2023/12/30 01:35:49;;;;;;;2.60;2.10;;;;;;;7.49;100.00;153282.81;4970460;28;20457;-76
2023/12/30 01:38:15;;;;;;;2.40;2.20;;;;;;;7.50;100.00;153285.38;5011277;28;20468;-76
2023/12/30 01:40:42;;;;;;;3.90;2.20;;;;;;;7.51;100.00;153287.97;5012349;28;20818;-77
2023/12/30 01:43:25;;;;;;;3.47;2.57;;;;;;;7.49;100.00;153282.81;4991750;28;20468;-76
2023/12/30 01:45:53;;;;;;;3.50;2.63;;;;;;;7.50;100.00;153285.38;5024880;28;20877;-75
2023/12/30 01:48:20;;;;;;;2.67;2.40;;;;;;;7.47;100.00;153277.63;5005829;28;20543;-76
2023/12/30 01:50:47;;;;;;;3.13;2.70;;;;;;;7.45;100.00;153272.47;5002390;28;20460;-76
2023/12/30 01:53:14;;;;;;;3.60;2.53;;;;;;;7.43;100.00;153267.31;4988132;28;20814;-76
2023/12/30 01:55:41;;;;;;;3.87;2.90;;;;;;;7.42;100.00;153264.69;5009342;28;20437;-76
2023/12/30 01:58:07;;;;;;;3.97;2.27;;;;;;;7.43;100.00;153267.31;4987031;28;20458;-75
2023/12/30 02:00:35;;;;;;;3.37;2.30;;;;;;;7.42;100.00;153264.69;5022168;28;20490;-76
2023/12/30 02:03:02;;;;;;;2.57;2.20;;;;;;;7.42;100.00;153266.00;5009833;28;20492;-76
2023/12/30 02:05:29;;;;;;;3.27;2.90;;;;;;;7.40;100.00;153259.53;5017177;28;20444;-76
2023/12/30 02:07:57;;;;;;;3.10;2.80;;;;;;;7.40;100.00;153259.53;4995134;28;20487;-76
2023/12/30 02:10:23;;;;;;;3.10;2.17;;;;;;;7.39;100.00;153257.00;4980603;28;20445;-76
2023/12/30 02:12:50;;;;;;;2.50;2.30;;;;;;;7.35;100.00;153249.25;4992089;28;20466;-76
2023/12/30 02:15:18;;;;;;;3.80;3.03;;;;;;;7.36;100.00;153251.78;5002179;28;20571;-76
2023/12/30 02:17:47;;;;;;;3.80;2.57;;;;;;;7.36;100.00;153251.78;4991817;28;20571;-76
2023/12/30 02:20:14;;;;;;;4.43;3.10;;;;;;;7.36;100.00;153251.78;5017375;28;20478;-76
2023/12/30 02:22:44;;;;;;;2.90;2.53;;;;;;;7.35;100.00;153247.94;5016430;28;20450;-76
2023/12/30 02:25:12;;;;;;;4.27;2.67;;;;;;;7.35;100.00;153247.94;4995248;28;20543;-75
2023/12/30 02:27:39;;;;;;;3.40;2.63;;;;;;;7.32;100.00;153241.47;5014089;28;20467;-75
2023/12/30 02:30:07;;;;;;;4.10;2.83;;;;;;;7.33;100.00;153242.78;4982830;28;20475;-76
2023/12/30 02:32:33;;;;;;;3.23;2.63;;;;;;;7.33;100.00;153242.78;5008945;28;20472;-75
2023/12/30 02:35:00;;;;;;;4.23;2.43;;;;;;;7.33;100.00;153242.78;5009307;28;21002;-76
2023/12/30 02:37:26;;;;;;;3.70;3.00;;;;;;;7.32;100.00;153240.19;4990437;28;20879;-76
2023/12/30 02:39:54;;;;;;;3.13;2.50;;;;;;;7.33;100.00;153244.03;5020645;28;20916;-75
2023/12/30 02:42:21;;;;;;;3.40;2.77;;;;;;;7.32;100.00;153240.19;4990624;28;20449;-76
2023/12/30 02:44:47;;;;;;;3.53;2.30;;;;;;;7.31;100.00;153238.88;5015966;28;20455;-75
2023/12/30 02:47:14;;;;;;;2.50;2.10;;;;;;;7.33;100.00;153244.03;4991158;28;20468;-76
2023/12/30 02:49:43;;;;;;;3.80;3.10;;;;;;;7.31;100.00;153238.88;4997601;28;20483;-76
2023/12/30 02:52:09;;;;;;;3.00;2.23;;;;;;;7.30;100.00;153235.03;4991036;28;20460;-76
2023/12/30 02:54:36;;;;;;;2.87;2.17;;;;;;;7.30;100.00;153236.34;5008019;28;20456;-76
2023/12/30 02:57:04;;;;;;;3.20;2.50;;;;;;;7.30;100.00;153236.34;5012443;28;20453;-76
2023/12/30 02:59:31;;;;;;;4.57;2.80;;;;;;;7.29;100.00;153233.72;4968762;28;20444;-76
2023/12/30 03:01:57;;;;;;;2.70;2.43;;;;;;;7.28;100.00;153231.13;5003696;28;20535;-76
2023/12/30 03:04:25;;;;;;;4.00;2.60;;;;;;;7.30;100.00;153235.03;4986520;28;20866;-76
2023/12/30 03:06:52;;;;;;;4.07;2.87;;;;;;;7.33;100.00;153244.03;5022686;28;20965;-76
2023/12/30 03:09:18;;;;;;;2.37;2.07;;;;;;;7.33;100.00;153242.78;5026015;28;20467;-75
2023/12/30 03:11:45;;;;;;;2.70;2.10;;;;;;;7.32;100.00;153241.47;4983875;28;20980;-77
2023/12/30 03:14:13;;;;;;;2.53;2.17;;;;;;;7.31;100.00;153237.59;4999540;28;20554;-76
2023/12/30 03:16:39;;;;;;;3.13;2.37;;;;;;;7.30;100.00;153235.03;4990355;28;20963;-76
2023/12/30 03:19:06;;;;;;;3.30;2.10;;;;;;;7.29;100.00;153233.72;4986350;28;20463;-76
2023/12/30 03:21:32;;;;;;;2.57;2.27;;;;;;;7.29;100.00;153232.44;5001947;28;20455;-76
2023/12/30 03:23:59;;;;;;;4.10;2.70;;;;;;;7.28;100.00;153231.13;4995051;28;20465;-76
2023/12/30 03:26:25;;;;;;;3.50;2.63;;;;;;;7.27;100.00;153228.56;5000994;28;20483;-77
2023/12/30 03:28:52;;;;;;;4.23;2.20;;;;;;;7.28;100.00;153229.88;4978838;28;20480;-76
2023/12/30 03:31:24;;;;;;;3.60;2.37;;;;;;;7.26;100.00;153225.97;5002138;28;20456;-75
2023/12/30 03:33:51;;;;;;;2.60;2.13;;;;;;;7.26;100.00;153225.97;4968228;28;20506;-76
2023/12/30 03:36:18;;;;;;;2.50;2.00;;;;;;;7.24;100.00;153219.53;5023708;28;21037;-76
2023/12/30 03:38:44;;;;;;;3.60;2.30;;;;;;;7.23;100.00;153218.22;5020581;28;20436;-76
2023/12/30 03:41:11;;;;;;;3.37;2.40;;;;;;;7.21;100.00;153213.06;5003307;28;20443;-76
2023/12/30 03:43:37;;;;;;;2.70;2.07;;;;;;;7.20;100.00;153210.47;4989123;28;20468;-76
2023/12/30 03:46:04;;;;;;;3.60;2.13;;;;;;;7.19;100.00;153207.91;5016173;28;20468;-76
2023/12/30 03:48:32;;;;;;;2.70;2.07;;;;;;;7.18;100.00;153205.31;5003877;28;20454;-76
2023/12/30 03:50:59;;;;;;;2.80;2.17;;;;;;;7.17;100.00;153202.75;5003637;28;20582;-76
2023/12/30 03:53:25;;;;;;;2.17;1.83;;;;;;;7.19;100.00;153206.63;4973954;28;20453;-76
2023/12/30 03:55:52;;;;;;;2.97;2.10;;;;;;;7.17;100.00;153201.47;4990598;28;20803;-76
2023/12/30 03:58:18;;;;;;;2.53;2.30;;;;;;;7.18;100.00;153205.31;5024349;28;20447;-76
2023/12/30 04:00:45;;;;;;;2.30;1.83;;;;;;;7.17;100.00;153202.75;5023869;28;20433;-76
2023/12/30 04:03:12;;;;;;;2.77;2.33;;;;;;;7.20;100.00;153209.22;4995170;28;20490;-76
2023/12/30 04:05:40;;;;;;;2.53;2.10;;;;;;;7.19;100.00;153206.63;5030756;28;20543;-76
2023/12/30 04:08:07;;;;;;;3.73;1.80;;;;;;;7.20;100.00;153210.47;5013489;28;20447;-76
2023/12/30 04:10:34;;;;;;;3.10;2.23;;;;;;;7.22;100.00;153214.38;5022145;28;20490;-76
2023/12/30 04:13:00;;;;;;;2.97;2.50;;;;;;;7.21;100.00;153213.06;4977663;28;20472;-76
2023/12/30 04:15:27;;;;;;;1.90;1.70;;;;;;;7.20;100.00;153210.47;5003623;28;20439;-76
2023/12/30 04:17:53;;;;;;;2.70;2.00;;;;;;;7.18;100.00;153205.31;4997480;28;20487;-75
2023/12/30 04:20:20;;;;;;;1.93;1.50;;;;;;;7.22;100.00;153214.38;5001450;28;20555;-76
2023/12/30 04:22:48;;;;;;;2.63;2.13;;;;;;;7.21;100.00;153213.06;5007103;28;20939;-76
2023/12/30 04:25:14;;;;;;;2.20;1.67;;;;;;;7.22;100.00;153215.66;5001798;28;20528;-76
2023/12/30 04:27:41;;;;;;;2.10;1.67;;;;;;;7.22;100.00;153214.38;5046644;28;20454;-76
2023/12/30 04:30:08;;;;;;;2.70;1.90;;;;;;;7.23;100.00;153218.22;4993284;28;20819;-76
2023/12/30 04:32:35;;;;;;;2.50;1.80;;;;;;;7.23;100.00;153218.22;5003058;28;20464;-76
2023/12/30 04:35:04;;;;;;;2.77;2.30;;;;;;;7.22;100.00;153215.66;5032898;28;20459;-76
2023/12/30 04:37:31;;;;;;;3.80;2.10;;;;;;;7.21;100.00;153211.78;4997233;28;20479;-76
2023/12/30 04:39:59;;;;;;;4.50;1.73;;;;;;;7.22;100.00;153215.66;5008812;28;20436;-76
2023/12/30 04:42:26;;;;;;;2.20;2.00;;;;;;;7.21;100.00;153211.78;5008328;28;20467;-76
2023/12/30 04:44:53;;;;;;;2.70;1.77;;;;;;;7.20;100.00;153210.47;4998814;28;20452;-76
2023/12/30 04:47:19;;;;;;;2.00;1.50;;;;;;;7.21;100.00;153213.06;5012891;28;20451;-75
2023/12/30 04:49:46;;;;;;;1.93;1.40;;;;;;;7.22;100.00;153215.66;5031722;28;20483;-76
2023/12/30 04:52:12;;;;;;;2.80;2.10;;;;;;;7.24;100.00;153219.53;4986932;28;20463;-76
2023/12/30 04:54:42;;;;;;;2.73;1.77;;;;;;;7.24;100.00;153219.53;5022781;28;20850;-75
2023/12/30 04:57:10;;;;;;;1.83;1.40;;;;;;;7.24;100.00;153220.81;5012887;28;20455;-76
2023/12/30 04:59:37;;;;;;;2.80;1.70;;;;;;;7.23;100.00;153216.91;5015103;28;20474;-76
2023/12/30 05:02:04;;;;;;;1.70;1.40;;;;;;;7.23;100.00;153218.22;5011730;28;20472;-76
2023/12/30 05:04:30;;;;;;;2.27;1.47;;;;;;;7.24;100.00;153220.81;4992968;28;20969;-76
2023/12/30 05:06:57;;;;;;;1.80;1.50;;;;;;;7.26;100.00;153225.97;5012684;28;20460;-76
2023/12/30 05:09:23;;;;;;;2.13;1.40;;;;;;;7.27;100.00;153227.28;5001572;28;21088;-76
2023/12/30 05:11:50;;;;;;;1.93;1.73;;;;;;;7.27;100.00;153228.56;5012419;28;20464;-76
2023/12/30 05:14:19;;;;;;;1.83;1.30;;;;;;;7.27;100.00;153228.56;5010403;28;20497;-76
2023/12/30 05:16:46;;;;;;;2.37;1.40;;;;;;;7.28;100.00;153231.13;5006405;28;20515;-76
2023/12/30 05:19:13;;;;;;;1.53;1.10;;;;;;;7.27;100.00;153228.56;4993578;28;20956;-76
2023/12/30 05:21:39;;;;;;;1.60;1.30;;;;;;;7.26;100.00;153224.66;4991904;28;20470;-76
2023/12/30 05:24:06;;;;;;;1.77;1.13;;;;;;;7.25;100.00;153222.13;5017584;28;20823;-75
2023/12/30 05:26:33;;;;;;;2.43;1.57;;;;;;;7.24;100.00;153220.81;5015149;28;20467;-76
2023/12/30 05:28:59;;;;;;;1.53;1.10;;;;;;;7.26;100.00;153225.97;4995663;28;20536;-75
2023/12/30 05:31:27;;;;;;;2.10;1.37;;;;;;;7.26;100.00;153225.97;5008014;28;20485;-77
2023/12/30 05:33:54;;;;;;;1.70;1.30;;;;;;;7.26;100.00;153224.66;5018636;28;20442;-76
2023/12/30 05:36:21;;;;;;;1.30;0.90;;;;;;;7.25;100.00;153223.38;5013454;28;20459;-75
2023/12/30 05:38:47;;;;;;;1.50;1.20;;;;;;;7.26;100.00;153224.66;5011052;28;20459;-76
2023/12/30 05:41:14;;;;;;;2.23;1.10;;;;;;;7.27;100.00;153228.56;4988924;28;20453;-75
2023/12/30 05:43:41;;;;;;;1.20;0.80;;;;;;;7.27;100.00;153227.28;5014453;28;20970;-76
2023/12/30 05:46:07;;;;;;;1.67;1.07;;;;;;;7.27;100.00;153228.56;4996335;28;20436;-76
2023/12/30 05:48:35;;;;;;;1.40;1.10;;;;;;;7.26;100.00;153225.97;5029318;28;20435;-76
2023/12/30 05:51:02;;;;;;;2.13;1.10;;;;;;;7.28;100.00;153231.13;5015885;28;20484;-76
2023/12/30 05:53:29;;;;;;;2.00;1.00;;;;;;;7.27;100.00;153228.56;5007202;28;20474;-75
2023/12/30 05:55:55;;;;;;;2.30;1.27;;;;;;;7.27;100.00;153228.56;4997091;28;20514;-76
2023/12/30 05:58:22;;;;;;;2.00;1.17;;;;;;;7.26;100.00;153225.97;5010026;28;20456;-75
2023/12/30 06:00:48;;;;;;;1.77;1.03;;;;;;;7.26;100.00;153225.97;5004200;28;20503;-75
2023/12/30 06:03:15;;;;;;;1.57;1.10;;;;;;;7.27;100.00;153228.56;5003576;28;20480;-77
2023/12/30 06:05:43;;;;;;;1.43;0.83;;;;;;;7.29;100.00;153233.72;4998042;28;20453;-76
2023/12/30 06:08:09;;;;;;;2.70;1.10;;;;;;;7.30;100.00;153235.03;4976260;28;20522;-77
2023/12/30 06:10:36;;;;;;;1.70;1.00;;;;;;;7.29;100.00;153233.72;5011387;28;21699;-77
2023/12/30 06:13:02;;;;;;;2.37;1.00;;;;;;;7.30;100.00;153236.34;4979972;28;20464;-76
2023/12/30 06:15:29;;;;;;;3.50;1.70;;;;;;;7.30;100.00;153236.34;4980399;28;20545;-76
2023/12/30 06:17:55;;;;;;;2.27;1.17;;;;;;;7.29;100.00;153233.72;4980311;28;20568;-76
2023/12/30 06:20:23;;;;;;;1.50;1.27;;;;;;;7.28;100.00;153231.13;4995435;28;20457;-76
2023/12/30 06:22:51;;;;;;;1.40;1.00;;;;;;;7.27;100.00;153228.56;4998069;28;20458;-76
2023/12/30 06:25:17;;;;;;;1.73;1.10;;;;;;;7.28;100.00;153229.88;4996833;28;20452;-76
2023/12/30 06:27:44;;;;;;;2.57;1.13;;;;;;;7.27;100.00;153228.56;4976253;28;20468;-75
2023/12/30 06:30:11;;;;;;;1.70;1.27;;;;;;;7.26;100.00;153225.97;5000260;28;20479;-75
2023/12/30 06:32:37;;;;;;;2.40;1.10;;;;;;;7.23;100.00;153218.22;4979042;28;20457;-75
2023/12/30 06:35:05;;;;;;;1.67;0.83;;;;;;;7.22;100.00;153214.38;4996615;28;20468;-75
2023/12/30 06:37:32;;;;;;;1.87;1.30;;;;;;;7.21;100.00;153213.06;4993791;28;20929;-75
2023/12/30 06:40:00;;;;;;;2.57;1.30;;;;;;;7.21;100.00;153213.06;4996661;28;20460;-76
2023/12/30 06:42:26;;;;;;;2.27;1.20;;;;;;;7.21;100.00;153213.06;4998338;28;20460;-75
2023/12/30 06:44:53;;;;;;;1.60;1.03;;;;;;;7.21;100.00;153213.06;4997150;28;20534;-75
2023/12/30 06:47:19;;;;;;;2.40;1.50;;;;;;;7.17;100.00;153202.75;5011379;28;20523;-75
2023/12/30 06:49:46;;;;;;;3.50;1.20;;;;;;;7.20;100.00;153209.22;4980982;28;20902;-75
2023/12/30 06:52:12;;;;;;;2.70;1.10;;;;;;;7.17;100.00;153202.75;4996198;28;20464;-75
2023/12/30 06:54:40;;;;;;;1.60;1.20;;;;;;;7.18;100.00;153205.31;4996941;28;20468;-75
2023/12/30 06:57:08;;;;;;;2.60;1.27;;;;;;;7.16;100.00;153198.84;5010832;28;20987;-75
2023/12/30 06:59:35;;;;;;;1.63;1.20;;;;;;;7.15;100.00;153197.56;5010420;28;20456;-75
2023/12/30 07:02:02;;;;;;;1.70;1.50;;;;;;;7.15;100.00;153196.25;4997454;28;20496;-75
2023/12/30 07:04:28;;;;;;;3.20;1.47;;;;;;;7.13;100.00;153192.41;5000080;28;20503;-75
2023/12/30 07:06:55;;;;;;;2.00;1.50;;;;;;;7.13;100.00;153192.41;4999647;28;21061;-75
2023/12/30 07:09:22;;;;;;;1.90;1.40;;;;;;;7.12;100.00;153188.56;5012299;28;20975;-75
2023/12/30 07:11:49;;;;;;;2.97;1.60;;;;;;;7.11;100.00;153185.94;4995674;28;20579;-75
2023/12/30 07:14:17;;;;;;;1.27;1.10;;;;;;;7.11;100.00;153187.25;4979705;28;20458;-75
2023/12/30 07:16:49;;;;;;;1.57;1.20;;;;;;;7.11;100.00;153185.94;4999283;28;20819;-75
2023/12/30 07:19:15;;;;;;;2.37;1.53;;;;;;;7.10;100.00;153183.34;4998006;28;20445;-75
2023/12/30 07:21:42;;;;;;;2.10;1.60;;;;;;;7.10;100.00;153184.66;4978377;28;20461;-75
2023/12/30 07:24:08;;;;;;;3.50;1.83;;;;;;;7.10;100.00;153184.66;5016713;28;20515;-75
2023/12/30 07:26:35;;;;;;;2.20;1.70;;;;;;;7.12;100.00;153189.81;4998821;28;20461;-75
2023/12/30 07:29:01;;;;;;;3.03;1.70;;;;;;;7.13;100.00;153191.09;4995787;28;20463;-76
2023/12/30 07:31:29;;;;;;;5.20;2.00;;;;;;;7.13;100.00;153192.41;4994395;28;20489;-75
2023/12/30 07:33:57;;;;;;;2.17;1.60;;;;;;;7.13;100.00;153192.41;4979567;28;20981;-75
2023/12/30 07:36:24;;;;;;;2.37;1.40;;;;;;;7.14;100.00;153193.72;4963157;28;20453;-75
2023/12/30 07:38:51;;;;;;;1.80;1.50;;;;;;;7.16;100.00;153200.16;4995339;28;20501;-75
2023/12/30 07:41:17;;;;;;;3.20;1.83;;;;;;;7.17;100.00;153202.75;5012975;28;20457;-75
2023/12/30 07:43:44;;;;;;;2.63;1.87;;;;;;;7.16;100.00;153200.16;4997939;28;20757;-75
2023/12/30 07:46:11;;;;;;;2.80;1.60;;;;;;;7.16;100.00;153200.16;4996143;28;20448;-75
2023/12/30 07:48:38;;;;;;;3.30;2.37;;;;;;;7.19;100.00;153207.91;4997690;28;20449;-75
2023/12/30 07:51:05;;;;;;;2.13;1.57;;;;;;;7.21;100.00;153211.78;4976152;28;20472;-75
2023/12/30 07:53:32;;;;;;;3.80;1.80;;;;;;;7.23;100.00;153218.22;4976911;28;20483;-75
2023/12/30 07:55:59;;;;;;;2.30;1.80;;;;;;;7.26;100.00;153224.66;4990898;28;20488;-75
2023/12/30 07:58:25;;;;;;;2.20;1.73;;;;;;;7.25;100.00;153223.38;4994825;28;20458;-76
2023/12/30 08:00:52;;;;;;;2.30;2.10;;;;;;;7.25;100.00;153223.38;4994813;28;20449;-75
2023/12/30 08:03:18;;;;;;;2.37;1.90;;;;;;;7.27;100.00;153227.28;4974911;28;20849;-75
2023/12/30 08:05:46;;;;;;;3.87;2.07;;;;;;;7.29;100.00;153233.72;4996659;28;20457;-75
2023/12/30 08:08:13;;;;;;;1.90;1.70;;;;;;;7.30;100.00;153236.34;5010372;28;20475;-75
2023/12/30 08:10:40;;;;;;;2.37;2.10;;;;;;;7.33;100.00;153242.78;4990128;28;20476;-75
2023/12/30 08:13:07;;;;;;;3.00;2.17;;;;;;;7.34;100.00;153245.34;4995798;28;20855;-75
2023/12/30 08:15:33;;;;;;;2.47;1.90;;;;;;;7.37;100.00;153253.09;4997014;28;20453;-76
2023/12/30 08:18:00;;;;;;;3.53;2.20;;;;;;;7.41;100.00;153262.16;4986836;28;20476;-75
2023/12/30 08:20:27;;;;;;;4.70;1.50;;;;;;;7.43;100.00;153267.31;4977851;28;20624;-75
2023/12/30 08:22:54;;;;;;;4.13;2.10;;;;;;;7.46;100.00;153275.06;5009939;28;20460;-75
2023/12/30 08:25:21;;;;;;;2.70;2.03;;;;;;;7.50;100.00;153285.38;4996160;28;20462;-75
2023/12/30 08:27:47;;;;;;;2.90;2.10;;;;;;;7.51;100.00;153289.28;4999291;28;20460;-75
2023/12/30 08:30:14;;;;;;;3.83;2.07;;;;;;;7.54;100.00;153297.03;4995656;28;20975;-75
2023/12/30 08:32:41;;;;;;;2.00;1.60;;;;;;;7.57;100.00;153304.72;4988203;28;20929;-75
2023/12/30 08:35:10;;;;;;;2.63;1.83;;;;;;;7.60;100.00;153311.25;4981939;28;20449;-74
2023/12/30 08:37:36;;;;;;;2.33;1.83;;;;;;;7.62;100.00;153317.69;4998732;28;20472;-75
2023/12/30 08:40:07;;;;;;;3.37;2.67;;;;;;;7.66;100.00;153326.72;4980489;28;20460;-75
2023/12/30 08:42:35;;;;;;;4.23;2.10;;;;;;;7.67;100.00;153329.31;4984220;28;20481;-75
2023/12/30 08:45:04;;;;;;;2.10;1.87;;;;;;;7.71;100.00;153339.63;4999404;28;20453;-75
2023/12/30 08:47:32;;;;;;;2.20;1.60;;;;;;;7.74;100.00;153347.38;4998973;28;20526;-77
2023/12/30 08:49:58;;;;;;;2.47;2.03;;;;;;;7.74;100.00;153348.69;4998801;28;20476;-74
2023/12/30 08:52:25;;;;;;;3.77;2.17;;;;;;;7.75;100.00;153351.28;4981783;28;20481;-74
2023/12/30 08:54:52;;;;;;;2.20;1.50;;;;;;;7.77;100.00;153356.44;5013626;28;20543;-74
2023/12/30 08:57:19;;;;;;;2.47;1.77;;;;;;;7.81;100.00;153366.75;4999871;28;20472;-81
2023/12/30 08:59:48;;;;;;;1.80;1.60;;;;;;;7.83;100.00;153370.66;4989719;28;20464;-81
2023/12/30 09:02:14;;;;;;;2.50;1.60;;;;;;;7.81;100.00;153365.50;4999970;28;20452;-82
2023/12/30 09:04:41;;;;;;;1.83;1.40;;;;;;;7.81;100.00;153366.75;4995625;28;20488;-82
2023/12/30 09:07:07;;;;;;;2.37;1.57;;;;;;;7.81;100.00;153365.50;4981692;28;20539;-81
2023/12/30 09:09:34;;;;;;;13.13;2.00;;;;;;;7.84;100.00;153373.19;5001451;28;20459;-81
2023/12/30 09:12:01;;;;;;;2.90;2.03;;;;;;;7.87;100.00;153382.25;4989150;28;20495;-82
2023/12/30 09:14:29;;;;;;;3.07;1.60;;;;;;;7.92;100.00;153393.88;5012813;28;20831;-83
2023/12/30 09:16:56;;;;;;;1.80;1.43;;;;;;;7.94;100.00;153399.09;4996571;28;20460;-83
2023/12/30 09:19:26;;;;;;;2.83;1.50;;;;;;;7.97;100.00;153406.78;4997956;28;20808;-83
2023/12/30 09:21:52;;;;;;;2.57;1.87;;;;;;;8.02;100.00;153419.75;4985967;28;20461;-83
2023/12/30 09:24:19;;;;;;;2.87;1.93;;;;;;;8.04;100.00;153424.91;5004718;28;20516;-83
2023/12/30 09:26:45;;;;;;;2.00;1.43;;;;;;;8.07;100.00;153432.66;4979994;28;20544;-83
2023/12/30 09:29:12;;;;;;;1.70;1.40;;;;;;;8.09;100.00;153437.81;5000330;28;20457;-83
2023/12/30 09:31:43;;;;;;;3.80;1.47;;;;;;;8.14;100.00;153449.44;5000050;28;20499;-83
2023/12/30 09:34:09;;;;;;;1.90;1.60;;;;;;;8.15;100.00;153453.34;4998070;28;20484;-82
2023/12/30 09:36:36;;;;;;;2.70;1.77;;;;;;;8.17;100.00;153458.50;4999541;28;20448;-83
2023/12/30 09:39:04;;;;;;;2.03;1.50;;;;;;;8.22;100.00;153470.13;5000768;28;20465;-83
2023/12/30 09:41:31;;;;;;;1.93;1.27;;;;;;;8.24;100.00;153476.59;4981933;28;20575;-83
2023/12/30 09:43:59;;;;;;;1.77;1.53;;;;;;;8.28;100.00;153485.69;5005652;28;20507;-83
2023/12/30 09:46:26;;;;;;;1.70;1.50;;;;;;;8.30;100.00;153492.16;5003086;28;20452;-83
2023/12/30 09:48:56;;;;;;;2.50;1.13;;;;;;;8.36;100.00;153507.69;4995093;28;20453;-83
2023/12/30 09:51:22;;;;;;;1.93;1.40;;;;;;;8.41;100.00;153520.59;5013035;28;20963;-83
2023/12/30 09:53:49;;;;;;;2.20;1.37;;;;;;;8.43;100.00;153524.47;4987672;28;20445;-83
2023/12/30 09:56:16;;;;;;;1.57;1.40;;;;;;;8.43;100.00;153525.75;4998429;28;20587;-83
2023/12/30 09:58:43;;;;;;;1.80;1.40;;;;;;;8.41;100.00;153520.59;5015731;28;21456;-83
2023/12/30 10:01:10;;;;;;;2.17;1.40;;;;;;;8.40;100.00;153518.00;4982156;28;20524;-83
2023/12/30 10:03:36;;;;;;;2.20;1.53;;;;;;;8.36;100.00;153507.69;5001208;28;20579;-83
2023/12/30 10:06:06;;;;;;;1.73;1.20;;;;;;;8.33;100.00;153499.91;4999576;28;20458;-83
2023/12/30 10:08:33;;;;;;;1.10;0.70;;;;;;;8.31;100.00;153494.72;5001699;28;20445;-83
2023/12/30 10:10:59;;;;;;;2.07;1.27;;;;;;;8.30;100.00;153492.16;5001721;28;20480;-82
2023/12/30 10:13:26;;;;;;;1.20;0.80;;;;;;;8.30;100.00;153492.16;5003222;28;20464;-83
2023/12/30 10:15:55;;;;;;;1.43;1.07;;;;;;;8.33;100.00;153499.91;4982850;28;20446;-83
2023/12/30 10:18:21;;;;;;;1.87;1.13;;;;;;;8.33;100.00;153498.63;5002518;28;20555;-83
2023/12/30 10:20:48;;;;;;;2.20;1.00;;;;;;;8.32;100.00;153497.31;5001920;28;20445;-83
2023/12/30 10:23:16;;;;;;;1.60;0.70;;;;;;;8.32;100.00;153497.31;4982447;28;20468;-83
2023/12/30 10:25:42;;;;;;;1.53;0.93;;;;;;;8.31;100.00;153493.47;4998177;28;20524;-83
2023/12/30 10:28:09;;;;;;;1.03;0.60;;;;;;;8.30;100.00;153490.84;5001804;28;20467;-83
2023/12/30 10:30:36;;;;;;;1.57;0.90;;;;;;;8.29;100.00;153489.56;4997771;28;20496;-82
2023/12/30 10:33:07;;;;;;;1.13;0.73;;;;;;;8.31;100.00;153493.47;4982203;28;20458;-83
2023/12/30 10:35:34;;;;;;;2.00;0.80;;;;;;;8.31;100.00;153493.47;4980994;28;20456;-83
2023/12/30 10:38:01;;;;;;;1.70;0.87;;;;;;;8.31;100.00;153494.72;4996386;28;20516;-83
2023/12/30 10:40:29;;;;;;;1.50;0.83;;;;;;;8.31;100.00;153494.72;4995145;28;20457;-83
2023/12/30 10:42:57;;;;;;;3.80;1.17;;;;;;;8.30;100.00;153492.16;4997852;28;20695;-83
2023/12/30 10:45:23;;;;;;;1.30;0.70;;;;;;;8.32;100.00;153497.31;4979593;28;20493;-83
2023/12/30 10:47:51;;;;;;;1.00;0.70;;;;;;;8.32;100.00;153497.31;5012358;28;20562;-82
2023/12/30 10:50:17;;;;;;;1.37;0.60;;;;;;;8.30;100.00;153492.16;4963591;28;21058;-83
2023/12/30 10:52:47;;;;;;;1.70;0.87;;;;;;;8.34;100.00;153502.47;5011604;28;21033;-83
2023/12/30 10:55:16;;;;;;;1.27;0.67;;;;;;;8.34;100.00;153502.47;4996746;28;20456;-83
2023/12/30 10:57:50;;;;;;;1.50;0.80;;;;;;;8.33;100.00;153499.91;4999925;28;20455;-83
2023/12/30 11:00:20;;;;;;;1.30;0.70;;;;;;;8.37;100.00;153508.94;4999009;28;20494;-83
2023/12/30 11:02:47;;;;;;;1.63;0.50;;;;;;;8.36;100.00;153507.69;4978662;28;20501;-83
2023/12/30 11:05:19;;;;;;;1.13;0.70;;;;;;;8.39;100.00;153515.38;5013474;28;20982;-83
2023/12/30 11:07:46;;;;;;;1.30;0.83;;;;;;;8.37;100.00;153510.22;5000099;28;20491;-83
2023/12/30 11:10:16;;;;;;;1.20;0.73;;;;;;;8.41;100.00;153520.59;4998916;28;20453;-84
2023/12/30 11:12:43;;;;;;;1.30;0.80;;;;;;;8.39;100.00;153515.38;4981716;28;21010;-83
2023/12/30 11:15:24;;;;;;;1.03;0.63;;;;;;;8.42;100.00;153521.84;5014921;28;20540;-83
2023/12/30 11:17:50;;;;;;;1.50;0.80;;;;;;;8.42;100.00;153523.16;4998896;28;20470;-83
2023/12/30 11:20:28;;;;;;;1.13;0.67;;;;;;;8.46;100.00;153532.22;4997596;28;20456;-83
2023/12/30 11:22:57;;;;;;;1.07;0.50;;;;;;;8.51;100.00;153545.13;5011281;28;20457;-83